Time;durP1;ratioP1;P1;durP2;ratioP2;P2;SDS_P1;SDS_P2;PMS_P1;PMS_P2;Temp;Humidity;BMP_temperature;BMP_pressure;BME280_temperature;BME280_humidity;BME280_pressure;Samples;Min_cycle;Max_cycle;Signal;HPM_P1;HPM_P2
2021/03/08 00:02:21;;;;;;;8.63;2.17;;;;;;;;;;5011090;28;20044;-43
2021/03/08 00:04:48;;;;;;;9.40;2.25;;;;;;;;;;5014701;28;20033;-43
2021/03/08 00:07:15;;;;;;;9.90;1.83;;;;;;;;;;5005223;28;20554;-47
2021/03/08 00:09:42;;;;;;;20.52;2.25;;;;;;;;;;5014535;28;20037;-44
2021/03/08 00:12:09;;;;;;;12.52;2.63;;;;;;;;;;5014413;28;20548;-45
2021/03/08 00:14:36;;;;;;;10.52;2.63;;;;;;;;;;5012548;28;20029;-44
2021/03/08 00:17:05;;;;;;;18.23;2.55;;;;;;;;;;5013433;28;20057;-46
2021/03/08 00:19:32;;;;;;;21.33;2.17;;;;;;;;;;5007003;28;20057;-43
2021/03/08 00:22:00;;;;;;;10.18;2.00;;;;;;;;;;4999644;28;20027;-45
2021/03/08 00:24:27;;;;;;;19.75;2.60;;;;;;;;;;5008697;28;20030;-43
2021/03/08 00:26:54;;;;;;;27.40;2.17;;;;;;;;;;5014148;28;20048;-46
2021/03/08 00:29:21;;;;;;;18.27;1.70;;;;;;;;;;5009326;28;20033;-47
2021/03/08 00:31:48;;;;;;;24.30;2.22;;;;;;;;;;5006334;28;20030;-44
2021/03/08 00:34:15;;;;;;;21.20;1.73;;;;;;;;;;5003959;28;20106;-45
2021/03/08 00:36:42;;;;;;;25.52;2.15;;;;;;;;;;5013724;28;20470;-47
2021/03/08 00:39:09;;;;;;;10.02;1.60;;;;;;;;;;5012631;28;20466;-46
2021/03/08 00:41:36;;;;;;;14.10;1.90;;;;;;;;;;5000360;28;20512;-46
2021/03/08 00:44:03;;;;;;;11.45;1.20;;;;;;;;;;5013713;28;20097;-45
2021/03/08 00:46:31;;;;;;;11.40;1.20;;;;;;;;;;5012495;28;20045;-46
2021/03/08 00:48:58;;;;;;;6.68;1.00;;;;;;;;;;4994122;28;20044;-45
2021/03/08 00:51:25;;;;;;;13.90;1.25;;;;;;;;;;5012241;28;20026;-46
2021/03/08 00:53:52;;;;;;;16.95;1.23;;;;;;;;;;5012141;28;20034;-45
2021/03/08 00:56:19;;;;;;;15.10;1.27;;;;;;;;;;5013736;28;20496;-47
2021/03/08 00:58:46;;;;;;;37.65;3.47;;;;;;;;;;5012789;28;20034;-46
2021/03/08 01:01:13;;;;;;;25.85;2.47;;;;;;;;;;5011173;28;20033;-45
2021/03/08 01:03:40;;;;;;;27.25;2.40;;;;;;;;;;5010287;28;20450;-47
2021/03/08 01:06:07;;;;;;;20.35;1.80;;;;;;;;;;5011000;28;20025;-45
2021/03/08 01:08:34;;;;;;;19.55;2.00;;;;;;;;;;5010705;28;20026;-47
2021/03/08 01:11:01;;;;;;;12.05;1.83;;;;;;;;;;5011487;28;20497;-44
2021/03/08 01:13:28;;;;;;;12.80;1.20;;;;;;;;;;5011637;28;20028;-45
2021/03/08 01:15:55;;;;;;;16.17;1.90;;;;;;;;;;5011475;28;20405;-45
2021/03/08 01:18:23;;;;;;;16.25;1.50;;;;;;;;;;5011846;28;20022;-45
2021/03/08 01:20:50;;;;;;;19.02;1.70;;;;;;;;;;4993827;28;20050;-49
2021/03/08 01:23:17;;;;;;;29.60;1.85;;;;;;;;;;5011609;28;20022;-46
2021/03/08 01:25:45;;;;;;;16.65;1.55;;;;;;;;;;5008221;28;20494;-48
2021/03/08 01:28:12;;;;;;;18.60;2.08;;;;;;;;;;5011244;28;20057;-44
2021/03/08 01:30:41;;;;;;;13.85;1.60;;;;;;;;;;5011145;28;20029;-45
2021/03/08 01:33:08;;;;;;;21.27;2.20;;;;;;;;;;5011663;28;20018;-46
2021/03/08 01:35:36;;;;;;;21.92;2.30;;;;;;;;;;5011431;28;20775;-46
2021/03/08 01:38:03;;;;;;;25.23;2.53;;;;;;;;;;5011586;28;20483;-45
2021/03/08 01:40:31;;;;;;;18.63;2.35;;;;;;;;;;5011860;28;20022;-44
2021/03/08 01:42:59;;;;;;;20.65;2.40;;;;;;;;;;5012610;28;20168;-45
2021/03/08 01:45:26;;;;;;;34.25;4.15;;;;;;;;;;4993189;28;20561;-44
2021/03/08 01:47:53;;;;;;;29.02;3.60;;;;;;;;;;5010142;28;20105;-44
2021/03/08 01:50:23;;;;;;;21.40;3.10;;;;;;;;;;5010107;28;20041;-46
2021/03/08 01:52:53;;;;;;;30.02;3.13;;;;;;;;;;5010520;28;20520;-46
2021/03/08 01:55:21;;;;;;;25.90;3.38;;;;;;;;;;5011637;28;20171;-46
2021/03/08 01:57:48;;;;;;;29.38;4.05;;;;;;;;;;5006772;28;20549;-46
2021/03/08 02:00:15;;;;;;;23.25;3.05;;;;;;;;;;5008390;28;20093;-47
2021/03/08 02:02:43;;;;;;;18.50;3.20;;;;;;;;;;5010752;28;20022;-45
2021/03/08 02:05:13;;;;;;;14.70;3.03;;;;;;;;;;5010952;28;20128;-46
2021/03/08 02:07:40;;;;;;;20.67;2.80;;;;;;;;;;5010428;28;20072;-42
2021/03/08 02:10:08;;;;;;;21.67;3.28;;;;;;;;;;5010616;28;20034;-45
2021/03/08 02:12:47;;;;;;;29.88;2.92;;;;;;;;;;5010071;28;20676;-46
2021/03/08 02:15:33;;;;;;;28.38;3.70;;;;;;;;;;4982646;28;20080;-46
2021/03/08 02:17:59;;;;;;;19.10;2.58;;;;;;;;;;5009327;28;20021;-46
2021/03/08 02:20:45;;;;;;;15.52;2.63;;;;;;;;;;5004901;28;20085;-49
2021/03/08 02:23:30;;;;;;;15.57;2.60;;;;;;;;;;4997242;28;20484;-47
2021/03/08 02:26:15;;;;;;;33.45;3.55;;;;;;;;;;5003634;28;20796;-54
2021/03/08 02:28:48;;;;;;;36.83;3.90;;;;;;;;;;5008990;28;20026;-49
2021/03/08 02:31:16;;;;;;;33.28;3.15;;;;;;;;;;5009057;28;20022;-49
2021/03/08 02:34:03;;;;;;;29.02;3.20;;;;;;;;;;5011767;28;20030;-49
2021/03/08 02:36:33;;;;;;;26.73;3.15;;;;;;;;;;5011161;28;20056;-54
2021/03/08 02:39:08;;;;;;;34.53;3.25;;;;;;;;;;5011510;28;20058;-48
2021/03/08 02:41:36;;;;;;;27.98;2.53;;;;;;;;;;5011066;28;20057;-51
2021/03/08 02:44:12;;;;;;;12.38;1.70;;;;;;;;;;5009925;28;20045;-51
2021/03/08 02:46:41;;;;;;;19.73;2.65;;;;;;;;;;5010894;28;20558;-49
2021/03/08 02:49:12;;;;;;;14.82;2.28;;;;;;;;;;5011340;28;20022;-51
2021/03/08 02:51:52;;;;;;;18.13;2.30;;;;;;;;;;4994198;28;20030;-51
2021/03/08 02:54:22;;;;;;;12.80;2.03;;;;;;;;;;5011757;28;20018;-49
2021/03/08 02:56:51;;;;;;;15.10;2.40;;;;;;;;;;5012189;28;20014;-51
2021/03/08 02:59:19;;;;;;;15.45;2.03;;;;;;;;;;5011119;28;20053;-47
2021/03/08 03:01:46;;;;;;;18.52;2.65;;;;;;;;;;5011138;28;20044;-46
2021/03/08 03:04:14;;;;;;;19.42;3.05;;;;;;;;;;5012561;28;20034;-47
2021/03/08 03:06:43;;;;;;;18.15;3.20;;;;;;;;;;5012360;28;20420;-46
2021/03/08 03:09:11;;;;;;;14.35;2.50;;;;;;;;;;5012581;28;20470;-47
2021/03/08 03:11:43;;;;;;;12.40;2.83;;;;;;;;;;5011757;28;20124;-47
2021/03/08 03:14:11;;;;;;;12.63;3.17;;;;;;;;;;5012502;28;20032;-48
2021/03/08 03:16:42;;;;;;;19.95;3.05;;;;;;;;;;5011479;28;20052;-49
2021/03/08 03:19:10;;;;;;;11.98;2.53;;;;;;;;;;5012530;28;20033;-48
2021/03/08 03:21:38;;;;;;;19.10;2.67;;;;;;;;;;5011758;28;20022;-47
2021/03/08 03:24:07;;;;;;;9.98;2.35;;;;;;;;;;5012438;28;20430;-49
2021/03/08 03:26:35;;;;;;;13.40;2.60;;;;;;;;;;5011921;28;20026;-47
2021/03/08 03:29:04;;;;;;;15.93;2.50;;;;;;;;;;5012224;28;20026;-48
2021/03/08 03:31:32;;;;;;;16.08;1.90;;;;;;;;;;4994296;28;20030;-47
2021/03/08 03:34:00;;;;;;;7.90;1.95;;;;;;;;;;5012343;28;20493;-46
2021/03/08 03:36:32;;;;;;;10.05;2.35;;;;;;;;;;5011661;28;20030;-47
2021/03/08 03:38:59;;;;;;;14.00;2.53;;;;;;;;;;5010140;28;20417;-46
2021/03/08 03:41:27;;;;;;;8.35;2.63;;;;;;;;;;4992542;28;20074;-47
2021/03/08 03:43:54;;;;;;;9.25;2.25;;;;;;;;;;4991962;28;20038;-47
2021/03/08 03:46:21;;;;;;;11.13;2.30;;;;;;;;;;5008860;28;20018;-47
2021/03/08 03:48:48;;;;;;;15.73;2.78;;;;;;;;;;5011780;28;20091;-48
2021/03/08 03:51:15;;;;;;;12.30;3.03;;;;;;;;;;5012242;28;20477;-47
2021/03/08 03:53:42;;;;;;;15.55;2.70;;;;;;;;;;5002154;28;20026;-47
2021/03/08 03:56:10;;;;;;;7.25;2.63;;;;;;;;;;5012112;28;20517;-46
2021/03/08 03:58:41;;;;;;;11.05;2.58;;;;;;;;;;5011616;28;20032;-49
2021/03/08 04:01:09;;;;;;;14.52;2.47;;;;;;;;;;5012197;28;20022;-48
2021/03/08 04:03:42;;;;;;;7.75;2.20;;;;;;;;;;5011413;28;20045;-49
2021/03/08 04:06:10;;;;;;;10.77;2.47;;;;;;;;;;5011963;28;20036;-50
2021/03/08 04:08:38;;;;;;;13.25;2.20;;;;;;;;;;5011562;28;20018;-50
2021/03/08 04:11:05;;;;;;;8.80;2.65;;;;;;;;;;5011947;28;20030;-50
2021/03/08 04:13:33;;;;;;;6.53;2.00;;;;;;;;;;5011495;28;20013;-48
2021/03/08 04:16:01;;;;;;;10.88;1.92;;;;;;;;;;5011902;28;20037;-51
2021/03/08 04:18:28;;;;;;;13.82;2.50;;;;;;;;;;5011491;28;20385;-47
2021/03/08 04:20:58;;;;;;;17.20;2.72;;;;;;;;;;5012087;28;20101;-52
2021/03/08 04:23:25;;;;;;;13.50;2.45;;;;;;;;;;5010992;28;20561;-48
2021/03/08 04:25:53;;;;;;;6.50;2.00;;;;;;;;;;5010012;28;20030;-47
2021/03/08 04:28:21;;;;;;;7.70;2.10;;;;;;;;;;5010816;28;20046;-47
2021/03/08 04:30:48;;;;;;;8.77;1.98;;;;;;;;;;5013465;28;20386;-47
2021/03/08 04:33:16;;;;;;;6.78;1.90;;;;;;;;;;5015184;28;20021;-51
2021/03/08 04:35:44;;;;;;;11.05;2.35;;;;;;;;;;5015093;28;20026;-48
2021/03/08 04:38:11;;;;;;;11.55;2.22;;;;;;;;;;5014918;28;20022;-49
2021/03/08 04:40:38;;;;;;;9.45;2.03;;;;;;;;;;5014533;28;20029;-48
2021/03/08 04:43:06;;;;;;;10.35;2.22;;;;;;;;;;5014996;28;20038;-48
2021/03/08 04:45:34;;;;;;;8.75;2.60;;;;;;;;;;5014639;28;20038;-48
2021/03/08 04:48:03;;;;;;;10.43;1.90;;;;;;;;;;5015037;28;20125;-48
2021/03/08 04:50:30;;;;;;;4.88;1.83;;;;;;;;;;5014640;28;20073;-49
2021/03/08 04:52:57;;;;;;;9.32;2.10;;;;;;;;;;5014864;28;20014;-52
2021/03/08 04:55:27;;;;;;;6.18;2.17;;;;;;;;;;5014189;28;20030;-50
2021/03/08 04:57:54;;;;;;;8.82;1.70;;;;;;;;;;5014957;28;20418;-51
2021/03/08 05:00:22;;;;;;;7.28;1.90;;;;;;;;;;5003883;28;20141;-49
2021/03/08 05:02:50;;;;;;;10.77;2.42;;;;;;;;;;4995116;28;20394;-49
2021/03/08 05:05:20;;;;;;;12.00;2.33;;;;;;;;;;4994318;28;20501;-51
2021/03/08 05:07:48;;;;;;;9.10;1.90;;;;;;;;;;4995038;28;20034;-53
2021/03/08 05:10:18;;;;;;;8.70;1.70;;;;;;;;;;4994815;28;20018;-46
2021/03/08 05:12:46;;;;;;;7.43;1.67;;;;;;;;;;4994973;28;20115;-47
2021/03/08 05:15:13;;;;;;;13.07;1.77;;;;;;;;;;4994825;28;20430;-47
2021/03/08 05:17:41;;;;;;;7.20;1.70;;;;;;;;;;4994495;28;20415;-50
2021/03/08 05:20:10;;;;;;;8.43;1.50;;;;;;;;;;4994709;28;20026;-48
2021/03/08 05:22:37;;;;;;;9.23;1.70;;;;;;;;;;4994349;28;20022;-48
2021/03/08 05:25:05;;;;;;;10.82;1.70;;;;;;;;;;5008069;28;20396;-49
2021/03/08 05:27:33;;;;;;;5.32;1.60;;;;;;;;;;5013720;28;20022;-51
2021/03/08 05:30:01;;;;;;;8.43;1.25;;;;;;;;;;5014297;28;20414;-47
2021/03/08 05:32:32;;;;;;;9.27;1.40;;;;;;;;;;5013721;28;20049;-47
2021/03/08 05:35:00;;;;;;;9.90;1.58;;;;;;;;;;5014014;28;20022;-48
2021/03/08 05:37:27;;;;;;;5.95;1.00;;;;;;;;;;5013399;28;20022;-48
2021/03/08 05:39:56;;;;;;;6.80;1.10;;;;;;;;;;5013894;28;20115;-47
2021/03/08 05:42:27;;;;;;;11.85;1.15;;;;;;;;;;5013336;28;20084;-48
2021/03/08 05:45:03;;;;;;;10.77;1.17;;;;;;;;;;5013610;28;20038;-47
2021/03/08 05:47:33;;;;;;;5.93;0.95;;;;;;;;;;5013242;28;20025;-46
2021/03/08 05:50:18;;;;;;;3.97;1.25;;;;;;;;;;5014060;28;20026;-47
2021/03/08 05:52:48;;;;;;;9.00;1.65;;;;;;;;;;5013458;28;20406;-47
2021/03/08 05:55:23;;;;;;;6.63;1.58;;;;;;;;;;5013541;28;20022;-48
2021/03/08 05:58:01;;;;;;;6.20;1.92;;;;;;;;;;5013077;28;20033;-48
2021/03/08 06:00:36;;;;;;;7.80;2.10;;;;;;;;;;5013755;28;20032;-48
2021/03/08 06:03:20;;;;;;;9.23;2.58;;;;;;;;;;5013032;28;20113;-47
2021/03/08 06:06:01;;;;;;;9.38;2.80;;;;;;;;;;5013436;28;20026;-47
2021/03/08 06:08:46;;;;;;;7.28;3.17;;;;;;;;;;5012872;28;20548;-47
2021/03/08 06:11:15;;;;;;;9.20;3.10;;;;;;;;;;5013516;28;20032;-46
2021/03/08 06:13:45;;;;;;;9.65;3.30;;;;;;;;;;5012689;28;20029;-48
2021/03/08 06:16:16;;;;;;;12.05;3.92;;;;;;;;;;5013193;28;20056;-48
2021/03/08 06:18:48;;;;;;;18.40;5.18;;;;;;;;;;5013174;28;20461;-46
2021/03/08 06:21:15;;;;;;;19.00;5.95;;;;;;;;;;5013457;28;20079;-47
2021/03/08 06:23:46;;;;;;;18.00;6.68;;;;;;;;;;5013246;28;20057;-47
2021/03/08 06:26:14;;;;;;;28.15;9.25;;;;;;;;;;5012655;28;20077;-47
2021/03/08 06:28:42;;;;;;;21.15;9.43;;;;;;;;;;5013105;28;20037;-48
2021/03/08 06:31:09;;;;;;;25.98;10.10;;;;;;;;;;5012725;28;20026;-51
2021/03/08 06:33:39;;;;;;;31.13;12.15;;;;;;;;;;5012949;28;20072;-50
2021/03/08 06:36:06;;;;;;;43.13;14.43;;;;;;;;;;5012608;28;20378;-52
2021/03/08 06:38:33;;;;;;;38.85;14.38;;;;;;;;;;5013063;28;20125;-51
2021/03/08 06:41:00;;;;;;;38.15;14.70;;;;;;;;;;5012324;28;20038;-48
2021/03/08 06:43:28;;;;;;;35.97;16.95;;;;;;;;;;5012800;28;20030;-47
2021/03/08 06:46:01;;;;;;;40.50;17.00;;;;;;;;;;5012355;28;20018;-48
2021/03/08 06:48:29;;;;;;;46.92;17.95;;;;;;;;;;5012912;28;20125;-49
2021/03/08 06:51:08;;;;;;;37.60;15.68;;;;;;;;;;5012008;28;20073;-46
2021/03/08 06:53:35;;;;;;;44.35;16.73;;;;;;;;;;5012565;28;20044;-47
2021/03/08 06:56:11;;;;;;;37.42;16.42;;;;;;;;;;5012319;28;20154;-47
2021/03/08 06:58:38;;;;;;;44.30;16.10;;;;;;;;;;5012776;28;20018;-48
2021/03/08 07:01:12;;;;;;;41.35;15.75;;;;;;;;;;4994586;28;20026;-45
2021/03/08 07:03:39;;;;;;;34.00;13.55;;;;;;;;;;5012553;28;20029;-46
2021/03/08 07:06:18;;;;;;;34.60;12.98;;;;;;;;;;5012499;28;20017;-46
2021/03/08 07:08:45;;;;;;;33.97;12.65;;;;;;;;;;5012369;28;20033;-47
2021/03/08 07:11:30;;;;;;;36.50;12.55;;;;;;;;;;5012623;28;20022;-48
2021/03/08 07:13:58;;;;;;;31.67;10.68;;;;;;;;;;5012145;28;20037;-48
2021/03/08 07:16:45;;;;;;;24.95;10.27;;;;;;;;;;5012251;28;20022;-47
2021/03/08 07:19:12;;;;;;;18.67;7.78;;;;;;;;;;5012102;28;20026;-48
2021/03/08 07:21:39;;;;;;;18.83;6.30;;;;;;;;;;5012672;28;20018;-48
2021/03/08 07:24:10;;;;;;;19.58;6.45;;;;;;;;;;5011705;28;20038;-48
2021/03/08 07:26:38;;;;;;;14.60;5.10;;;;;;;;;;5012119;28;20072;-47
2021/03/08 07:29:08;;;;;;;14.40;4.38;;;;;;;;;;5012093;28;20041;-50
2021/03/08 07:31:37;;;;;;;8.68;2.70;;;;;;;;;;5012591;28;20022;-49
2021/03/08 07:34:05;;;;;;;7.50;2.72;;;;;;;;;;5011843;28;20033;-48
2021/03/08 07:36:32;;;;;;;6.55;2.50;;;;;;;;;;5011975;28;20018;-47
2021/03/08 07:38:59;;;;;;;8.68;1.67;;;;;;;;;;5012112;28;20040;-48
2021/03/08 07:41:26;;;;;;;6.20;1.48;;;;;;;;;;5012191;28;20096;-48
2021/03/08 07:44:05;;;;;;;6.10;1.20;;;;;;;;;;5011726;28;20058;-46
2021/03/08 07:46:36;;;;;;;5.85;1.10;;;;;;;;;;5012215;28;20109;-49
2021/03/08 07:49:05;;;;;;;3.83;0.82;;;;;;;;;;5011935;28;20040;-49
2021/03/08 07:51:32;;;;;;;7.07;1.00;;;;;;;;;;5011992;28;20101;-49
2021/03/08 07:54:03;;;;;;;7.07;0.90;;;;;;;;;;5011659;28;20462;-46
2021/03/08 07:56:30;;;;;;;5.07;0.70;;;;;;;;;;5012086;28;20498;-46
2021/03/08 07:58:58;;;;;;;4.05;0.80;;;;;;;;;;5011974;28;20532;-46
2021/03/08 08:01:25;;;;;;;8.02;1.00;;;;;;;;;;5011805;28;20026;-46
2021/03/08 08:03:53;;;;;;;6.95;0.70;;;;;;;;;;5014292;28;20477;-48
2021/03/08 08:06:21;;;;;;;9.93;0.60;;;;;;;;;;5015143;28;20318;-47
2021/03/08 08:08:50;;;;;;;7.45;0.80;;;;;;;;;;5015784;28;20025;-49
2021/03/08 08:11:19;;;;;;;8.82;1.13;;;;;;;;;;5015470;28;20033;-47
2021/03/08 08:13:48;;;;;;;10.85;0.80;;;;;;;;;;4998549;28;20052;-46
2021/03/08 08:16:15;;;;;;;10.98;1.00;;;;;;;;;;5014900;28;20030;-48
2021/03/08 08:18:43;;;;;;;3.83;0.68;;;;;;;;;;5015409;28;20473;-46
2021/03/08 08:21:12;;;;;;;5.78;0.50;;;;;;;;;;5015211;28;20049;-47
2021/03/08 08:23:41;;;;;;;11.82;0.80;;;;;;;;;;5015420;28;20030;-45
2021/03/08 08:26:13;;;;;;;6.28;0.45;;;;;;;;;;5015031;28;20049;-47
2021/03/08 08:28:43;;;;;;;3.45;0.63;;;;;;;;;;5015409;28;20032;-48
2021/03/08 08:31:10;;;;;;;7.38;0.45;;;;;;;;;;5014898;28;20387;-46
2021/03/08 08:33:37;;;;;;;7.38;1.00;;;;;;;;;;5015129;28;20378;-47
2021/03/08 08:36:08;;;;;;;3.55;0.68;;;;;;;;;;4997609;28;20065;-45
2021/03/08 08:38:36;;;;;;;7.93;0.70;;;;;;;;;;5015040;28;20057;-46
2021/03/08 08:41:21;;;;;;;9.52;0.70;;;;;;;;;;5014567;28;20042;-47
2021/03/08 08:43:49;;;;;;;8.93;0.95;;;;;;;;;;5014977;28;20038;-47
2021/03/08 08:46:26;;;;;;;12.02;0.90;;;;;;;;;;4997175;28;20055;-47
2021/03/08 08:49:04;;;;;;;5.30;1.00;;;;;;;;;;5015030;28;20047;-47
2021/03/08 08:51:49;;;;;;;10.25;1.15;;;;;;;;;;5014751;28;20029;-46
2021/03/08 08:54:28;;;;;;;5.78;0.77;;;;;;;;;;5014994;28;20144;-47
2021/03/08 08:56:59;;;;;;;12.48;0.90;;;;;;;;;;5014366;28;20022;-47
2021/03/08 08:59:27;;;;;;;11.88;0.88;;;;;;;;;;5014809;28;20022;-47
2021/03/08 09:04:45;;;;;;;7.15;0.73;;;;;;;;;;5014573;28;20046;-45
2021/03/08 09:07:21;;;;;;;14.00;0.85;;;;;;;;;;5014113;28;20314;-47
2021/03/08 09:09:49;;;;;;;12.23;0.85;;;;;;;;;;5014853;28;20058;-50
2021/03/08 09:12:30;;;;;;;14.75;0.98;;;;;;;;;;5014438;28;20470;-46
2021/03/08 09:14:58;;;;;;;15.63;1.10;;;;;;;;;;5013811;28;20445;-48
2021/03/08 09:17:26;;;;;;;9.88;0.73;;;;;;;;;;5014092;28;20022;-50
2021/03/08 09:19:57;;;;;;;19.13;1.30;;;;;;;;;;5014218;28;20039;-50
2021/03/08 09:24:52;;;;;;;18.33;0.98;;;;;;;;;;5014139;28;20037;-48
2021/03/08 09:27:22;;;;;;;12.23;1.10;;;;;;;;;;5014321;28;20474;-48
2021/03/08 09:29:49;;;;;;;14.98;1.13;;;;;;;;;;5013772;28;20030;-52
2021/03/08 09:32:17;;;;;;;11.90;1.27;;;;;;;;;;5014147;28;20485;-50
2021/03/08 09:34:44;;;;;;;12.15;1.17;;;;;;;;;;5013895;28;20034;-47
2021/03/08 09:37:11;;;;;;;19.15;1.10;;;;;;;;;;5014151;28;20032;-48
2021/03/08 09:39:57;;;;;;;17.15;1.52;;;;;;;;;;5013459;28;20076;-47
2021/03/08 09:42:24;;;;;;;14.77;1.67;;;;;;;;;;5013758;28;20054;-46
2021/03/08 09:44:51;;;;;;;30.48;1.40;;;;;;;;;;5013355;28;20030;-46
2021/03/08 09:47:18;;;;;;;11.32;1.42;;;;;;;;;;5014134;28;20029;-48
2021/03/08 09:49:49;;;;;;;22.48;1.48;;;;;;;;;;5013060;28;20544;-46
2021/03/08 09:52:34;;;;;;;9.57;1.00;;;;;;;;;;5013856;28;20022;-47
2021/03/08 09:55:02;;;;;;;17.33;1.38;;;;;;;;;;5013382;28;20036;-49
2021/03/08 09:57:34;;;;;;;14.60;1.70;;;;;;;;;;5013750;28;20033;-50
2021/03/08 10:00:01;;;;;;;19.48;1.60;;;;;;;;;;5007168;28;20367;-47
2021/03/08 10:02:28;;;;;;;11.27;0.90;;;;;;;;;;5002108;28;20101;-49
2021/03/08 10:04:56;;;;;;;16.15;1.63;;;;;;;;;;5013174;28;20072;-46
2021/03/08 10:07:23;;;;;;;16.58;1.90;;;;;;;;;;5010656;28;20021;-50
2021/03/08 10:10:06;;;;;;;28.98;2.70;;;;;;;;;;4993580;28;20022;-51
2021/03/08 10:12:34;;;;;;;19.98;1.33;;;;;;;;;;4993991;28;20057;-47
2021/03/08 10:15:01;;;;;;;25.05;1.80;;;;;;;;;;4993934;28;20018;-48
2021/03/08 10:17:28;;;;;;;46.38;2.05;;;;;;;;;;4993157;28;20386;-49
2021/03/08 10:19:55;;;;;;;36.05;2.53;;;;;;;;;;4992198;28;20034;-48
2021/03/08 10:22:35;;;;;;;27.77;2.58;;;;;;;;;;4993332;28;20076;-48
2021/03/08 10:25:03;;;;;;;43.05;3.38;;;;;;;;;;4993815;28;20040;-47
2021/03/08 10:27:30;;;;;;;40.25;2.70;;;;;;;;;;4991735;28;20422;-47
2021/03/08 10:29:57;;;;;;;35.85;2.75;;;;;;;;;;4993424;28;20027;-47
2021/03/08 10:32:24;;;;;;;33.90;2.50;;;;;;;;;;4993274;28;20054;-48
2021/03/08 10:34:52;;;;;;;36.90;3.13;;;;;;;;;;4993493;28;20030;-51
2021/03/08 10:37:20;;;;;;;41.42;3.58;;;;;;;;;;4992766;28;20026;-47
2021/03/08 10:39:50;;;;;;;32.78;2.83;;;;;;;;;;4993310;28;20072;-46
2021/03/08 10:42:21;;;;;;;34.85;2.83;;;;;;;;;;4992950;28;20542;-47
2021/03/08 10:44:49;;;;;;;30.35;2.58;;;;;;;;;;4993210;28;20038;-45
2021/03/08 10:47:16;;;;;;;49.22;3.75;;;;;;;;;;4992824;28;20019;-45
2021/03/08 10:49:50;;;;;;;42.63;3.30;;;;;;;;;;4993101;28;20030;-46
2021/03/08 10:52:17;;;;;;;69.40;4.15;;;;;;;;;;4992772;28;20018;-47
2021/03/08 10:54:45;;;;;;;60.97;4.50;;;;;;;;;;4993274;28;20022;-46
2021/03/08 10:57:12;;;;;;;67.70;5.68;;;;;;;;;;4992776;28;20026;-48
2021/03/08 10:59:50;;;;;;;62.78;5.60;;;;;;;;;;4991576;28;20033;-47
2021/03/08 11:02:18;;;;;;;60.80;5.00;;;;;;;;;;4992577;28;20018;-48
2021/03/08 11:04:46;;;;;;;44.22;5.05;;;;;;;;;;4992927;28;20121;-50
2021/03/08 11:07:13;;;;;;;55.20;5.32;;;;;;;;;;4993181;28;20033;-50
2021/03/08 11:09:47;;;;;;;52.95;4.90;;;;;;;;;;4992114;28;20054;-48
2021/03/08 11:12:19;;;;;;;43.33;4.40;;;;;;;;;;4993070;28;20094;-48
2021/03/08 11:14:47;;;;;;;54.88;5.13;;;;;;;;;;4992561;28;20026;-50
2021/03/08 11:17:14;;;;;;;46.35;3.90;;;;;;;;;;4992918;28;20038;-47
2021/03/08 11:19:41;;;;;;;40.85;4.20;;;;;;;;;;4990947;28;20022;-47
2021/03/08 11:22:09;;;;;;;52.53;4.57;;;;;;;;;;5008180;28;20496;-47
2021/03/08 11:24:46;;;;;;;39.72;4.88;;;;;;;;;;5012107;28;20496;-51
2021/03/08 11:27:21;;;;;;;42.15;4.75;;;;;;;;;;4994869;28;20030;-47
2021/03/08 11:29:59;;;;;;;50.78;5.03;;;;;;;;;;5011518;28;20052;-48
2021/03/08 11:32:27;;;;;;;38.55;4.13;;;;;;;;;;5012404;28;20106;-48
2021/03/08 11:34:55;;;;;;;66.80;5.65;;;;;;;;;;5011913;28;20030;-48
2021/03/08 11:37:22;;;;;;;60.30;4.55;;;;;;;;;;5012442;28;20505;-48
2021/03/08 11:39:51;;;;;;;73.03;5.65;;;;;;;;;;5015566;28;20033;-50
2021/03/08 11:42:19;;;;;;;65.45;6.65;;;;;;;;;;5015954;28;20045;-50
2021/03/08 11:44:47;;;;;;;94.00;7.22;;;;;;;;;;5015888;28;20551;-48
2021/03/08 11:47:14;;;;;;;58.75;5.72;;;;;;;;;;5016076;28;20421;-47
2021/03/08 11:49:42;;;;;;;82.38;6.28;;;;;;;;;;5015655;28;20030;-46
2021/03/08 11:52:10;;;;;;;60.53;6.32;;;;;;;;;;5016279;28;20097;-51
2021/03/08 11:54:37;;;;;;;67.75;5.65;;;;;;;;;;5016067;28;20018;-45
2021/03/08 11:57:06;;;;;;;57.63;6.28;;;;;;;;;;5015514;28;20030;-49
2021/03/08 11:59:33;;;;;;;85.10;7.38;;;;;;;;;;4991805;28;20394;-45
2021/03/08 12:02:00;;;;;;;87.18;8.15;;;;;;;;;;5011748;28;20056;-47
2021/03/08 12:04:28;;;;;;;76.82;7.97;;;;;;;;;;5013197;28;20030;-45
2021/03/08 12:06:55;;;;;;;86.95;8.93;;;;;;;;;;5008925;28;20029;-46
2021/03/08 12:09:22;;;;;;;83.95;9.18;;;;;;;;;;5009388;28;20022;-48
2021/03/08 12:11:50;;;;;;;79.10;8.02;;;;;;;;;;4995123;28;20034;-49
2021/03/08 12:14:17;;;;;;;85.00;9.45;;;;;;;;;;5011966;28;20026;-56
2021/03/08 12:16:44;;;;;;;73.45;7.38;;;;;;;;;;4993573;28;20371;-48
2021/03/08 12:19:11;;;;;;;92.50;9.77;;;;;;;;;;5014015;28;20018;-50
2021/03/08 12:21:38;;;;;;;80.00;9.00;;;;;;;;;;5009949;28;20643;-50
2021/03/08 12:24:05;;;;;;;87.43;9.38;;;;;;;;;;5011841;28;20049;-51
2021/03/08 12:26:33;;;;;;;95.28;9.65;;;;;;;;;;5010955;28;20101;-47
2021/03/08 12:29:01;;;;;;;138.02;14.05;;;;;;;;;;4992258;28;20397;-47
2021/03/08 12:31:28;;;;;;;112.47;11.38;;;;;;;;;;5012912;28;20022;-47
2021/03/08 12:33:55;;;;;;;87.65;10.30;;;;;;;;;;5014404;28;20022;-50
2021/03/08 12:36:22;;;;;;;94.47;11.43;;;;;;;;;;4995886;28;20022;-44
2021/03/08 12:38:49;;;;;;;97.03;10.35;;;;;;;;;;5014311;28;20061;-50
2021/03/08 12:41:16;;;;;;;124.20;12.07;;;;;;;;;;5013767;28;20038;-52
2021/03/08 12:43:43;;;;;;;142.77;13.00;;;;;;;;;;5013746;28;20034;-52
2021/03/08 12:46:10;;;;;;;103.05;11.30;;;;;;;;;;5013984;28;20032;-47
2021/03/08 12:48:37;;;;;;;109.78;11.73;;;;;;;;;;5013824;28;20022;-50
2021/03/08 12:51:04;;;;;;;118.03;12.10;;;;;;;;;;5012977;28;20042;-48
2021/03/08 12:53:31;;;;;;;132.82;12.88;;;;;;;;;;4993326;28;20022;-48
2021/03/08 12:55:58;;;;;;;126.90;12.45;;;;;;;;;;5014068;28;20129;-47
2021/03/08 12:58:25;;;;;;;140.23;15.15;;;;;;;;;;5013811;28;20046;-46
2021/03/08 13:00:52;;;;;;;138.25;14.27;;;;;;;;;;5014191;28;20026;-42
2021/03/08 13:03:19;;;;;;;157.82;15.77;;;;;;;;;;5012782;28;20030;-41
2021/03/08 13:05:46;;;;;;;127.30;13.48;;;;;;;;;;5010382;28;20481;-41
2021/03/08 13:08:13;;;;;;;107.85;11.32;;;;;;;;;;5011910;28;20033;-41
2021/03/08 13:10:40;;;;;;;116.93;13.43;;;;;;;;;;5012238;28;20072;-42
2021/03/08 13:13:07;;;;;;;100.40;12.10;;;;;;;;;;5011624;28;20025;-42
2021/03/08 13:15:34;;;;;;;95.00;11.73;;;;;;;;;;5013135;28;20025;-42
2021/03/08 13:18:01;;;;;;;103.03;11.27;;;;;;;;;;5013262;28;20107;-42
2021/03/08 13:20:28;;;;;;;93.22;10.90;;;;;;;;;;5013287;28;20382;-46
2021/03/08 13:22:56;;;;;;;89.47;11.10;;;;;;;;;;5013599;28;20500;-48
2021/03/08 13:25:24;;;;;;;71.57;9.55;;;;;;;;;;5013467;28;20041;-47
2021/03/08 13:27:54;;;;;;;84.80;11.18;;;;;;;;;;5013978;28;20113;-48
2021/03/08 13:30:21;;;;;;;78.47;9.63;;;;;;;;;;5013354;28;20084;-48
2021/03/08 13:32:48;;;;;;;68.72;9.55;;;;;;;;;;4996588;28;20457;-47
2021/03/08 13:35:16;;;;;;;68.13;10.55;;;;;;;;;;5008443;28;20030;-47
2021/03/08 13:37:43;;;;;;;80.45;10.18;;;;;;;;;;5012459;28;20028;-47
2021/03/08 13:40:10;;;;;;;65.80;9.05;;;;;;;;;;5008259;28;20081;-47
2021/03/08 13:42:37;;;;;;;84.25;10.07;;;;;;;;;;5012608;28;20088;-47
2021/03/08 13:45:05;;;;;;;103.88;13.32;;;;;;;;;;5008054;28;20045;-48
2021/03/08 13:47:32;;;;;;;97.68;12.23;;;;;;;;;;5013279;28;20060;-47
2021/03/08 13:49:59;;;;;;;115.40;11.70;;;;;;;;;;5013106;28;20672;-52
2021/03/08 13:52:26;;;;;;;103.32;13.20;;;;;;;;;;5009821;28;20108;-49
2021/03/08 13:54:53;;;;;;;103.07;13.02;;;;;;;;;;5006079;28;20076;-50
2021/03/08 13:57:20;;;;;;;86.20;12.73;;;;;;;;;;5012597;28;20018;-48
2021/03/08 13:59:47;;;;;;;107.43;12.77;;;;;;;;;;5011265;28;20022;-48
2021/03/08 14:02:14;;;;;;;102.68;12.32;;;;;;;;;;5007608;28;20536;-49
2021/03/08 14:04:42;;;;;;;108.82;12.95;;;;;;;;;;5008841;28;20038;-47
2021/03/08 14:07:09;;;;;;;98.65;12.82;;;;;;;;;;5011625;28;20112;-47
2021/03/08 14:09:37;;;;;;;114.25;14.40;;;;;;;;;;5013221;28;20080;-47
2021/03/08 14:12:07;;;;;;;102.55;13.02;;;;;;;;;;5007998;28;20058;-49
2021/03/08 14:14:34;;;;;;;109.43;13.55;;;;;;;;;;5012210;28;20041;-47
2021/03/08 14:17:01;;;;;;;97.05;12.93;;;;;;;;;;5012111;28;20033;-47
2021/03/08 14:19:28;;;;;;;110.05;13.93;;;;;;;;;;5012796;28;20029;-47
2021/03/08 14:21:55;;;;;;;131.15;14.82;;;;;;;;;;5012033;28;20021;-48
2021/03/08 14:24:22;;;;;;;125.82;13.82;;;;;;;;;;5012386;28;20041;-41
2021/03/08 14:26:49;;;;;;;117.63;14.00;;;;;;;;;;5012503;28;20040;-41
2021/03/08 14:29:16;;;;;;;89.93;12.07;;;;;;;;;;5012557;28;20033;-42
2021/03/08 14:31:43;;;;;;;105.28;14.30;;;;;;;;;;5013275;28;20501;-43
2021/03/08 14:34:10;;;;;;;94.30;12.95;;;;;;;;;;5011932;28;20041;-42
2021/03/08 14:36:37;;;;;;;100.32;13.80;;;;;;;;;;4994367;28;20026;-42
2021/03/08 14:39:04;;;;;;;100.68;14.18;;;;;;;;;;5012185;28;20030;-43
2021/03/08 14:41:31;;;;;;;105.88;12.90;;;;;;;;;;5012579;28;20054;-42
2021/03/08 14:43:58;;;;;;;93.82;11.20;;;;;;;;;;5011668;28;20038;-42
2021/03/08 14:46:25;;;;;;;85.45;11.80;;;;;;;;;;5012122;28;20022;-41